createdAt,value
2022-10-01T00:02:28.315Z,100113.53
2022-10-01T00:05:31.394Z,100111.13
2022-10-01T00:08:34.297Z,100113.94
2022-10-01T00:11:38.245Z,100106.75
2022-10-01T00:14:40.774Z,100110.34
2022-10-01T00:17:43.974Z,100096.41
2022-10-01T00:20:47.749Z,100107.56
2022-10-01T00:23:59.733Z,100112.34
2022-10-01T00:27:02.299Z,100115.53
2022-10-01T00:30:06.700Z,100129.50
2022-10-01T00:33:11.793Z,100111.16
2022-10-01T00:36:14.943Z,100109.53
2022-10-01T00:39:18.515Z,100115.13
2022-10-01T00:42:29.372Z,100107.94
2022-10-01T00:45:32.234Z,100119.91
2022-10-01T00:48:44.667Z,100113.94
2022-10-01T00:51:51.105Z,100119.88
2022-10-01T00:55:12.760Z,100127.88
2022-10-01T00:58:15.950Z,100126.25
2022-10-01T01:01:19.206Z,100131.84
2022-10-01T01:04:21.855Z,100128.66
2022-10-01T01:07:24.989Z,100118.31
2022-10-01T01:11:09.304Z,100111.53
2022-10-01T01:14:34.085Z,100109.53
2022-10-01T01:17:44.537Z,100101.19
2022-10-01T01:21:08.728Z,100106.75
2022-10-01T01:24:45.119Z,100081.22
2022-10-01T01:27:47.954Z,100087.63
2022-10-01T01:30:56.139Z,100086.44
2022-10-01T01:34:00.947Z,100089.25
2022-10-01T01:37:15.745Z,100092.03
2022-10-01T01:40:21.190Z,100084.47
2022-10-01T01:43:40.889Z,100091.59
2022-10-01T01:46:49.600Z,100101.56
2022-10-01T01:49:53.440Z,100099.16
2022-10-01T01:52:56.417Z,100097.16
2022-10-01T01:56:00.604Z,100084.78
2022-10-01T01:59:04.008Z,100092.34
2022-10-01T02:02:08.893Z,100083.91
2022-10-01T02:05:18.286Z,100077.50
2022-10-01T02:08:31.817Z,100096.59
2022-10-01T02:11:45.813Z,100104.59
2022-10-01T02:15:20.521Z,100103.00
2022-10-01T02:18:39.939Z,100111.78
2022-10-01T02:21:56.068Z,100107.38
2022-10-01T02:25:02.127Z,100103.78
2022-10-01T02:28:11.350Z,100103.78
2022-10-01T02:31:16.072Z,100103.78
2022-10-01T02:34:21.032Z,100093.00
2022-10-01T02:37:26.778Z,100094.56
2022-10-01T02:40:33.595Z,100081.50
2022-10-01T02:43:43.246Z,100075.06
2022-10-01T02:46:52.574Z,100078.25
2022-10-01T02:49:56.131Z,100081.84
2022-10-01T02:53:13.819Z,100078.28
2022-10-01T02:56:36.904Z,100073.50
2022-10-01T02:59:39.525Z,100071.94
2022-10-01T03:02:42.829Z,100076.72
2022-10-01T03:05:45.603Z,100083.12
2022-10-01T03:08:48.488Z,100084.31
2022-10-01T03:11:51.501Z,100083.88
2022-10-01T03:14:56.502Z,100087.81
2022-10-01T03:17:59.165Z,100083.78
2022-10-01T03:21:02.001Z,100087.75
2022-10-01T03:24:04.581Z,100097.41
2022-10-01T03:27:07.640Z,100096.62
2022-10-01T03:30:11.172Z,100105.78
2022-10-01T03:33:14.119Z,100106.22
2022-10-01T03:36:18.109Z,100103.03
2022-10-01T03:39:21.073Z,100109.03
2022-10-01T03:42:23.644Z,100100.59
2022-10-01T03:45:26.731Z,100094.13
2022-10-01T03:48:30.195Z,100093.81
2022-10-01T03:51:34.738Z,100077.44
2022-10-01T03:54:39.098Z,100089.53
2022-10-01T03:57:41.908Z,100094.28
2022-10-01T04:00:49.833Z,100092.25
2022-10-01T04:03:55.012Z,100087.09
2022-10-01T04:06:57.638Z,100083.88
2022-10-01T04:10:00.614Z,100082.31
2022-10-01T04:13:03.293Z,100087.47
2022-10-01T04:16:07.261Z,100088.69
2022-10-01T04:19:09.835Z,100086.69
2022-10-01T04:22:12.802Z,100092.69
2022-10-01T04:25:15.636Z,100088.31
2022-10-01T04:28:18.843Z,100097.06
2022-10-01T04:31:24.618Z,100099.03
2022-10-01T04:34:47.647Z,100091.47
2022-10-01T04:37:58.615Z,100096.66
2022-10-01T04:41:01.558Z,100093.06
2022-10-01T04:44:04.428Z,100105.84
2022-10-01T04:47:08.797Z,100103.88
2022-10-01T04:50:11.725Z,100105.91
2022-10-01T04:53:15.975Z,100103.94
2022-10-01T04:56:18.759Z,100099.19
2022-10-01T04:59:21.898Z,100101.13
2022-10-01T05:02:24.624Z,100103.94
2022-10-01T05:05:29.936Z,100100.75
2022-10-01T05:08:32.514Z,100097.94
2022-10-01T05:11:37.835Z,100099.94
2022-10-01T05:14:40.758Z,100091.97
2022-10-01T05:17:43.851Z,100089.97
2022-10-01T05:20:46.977Z,100095.91
2022-10-01T05:23:49.909Z,100102.72
2022-10-01T05:26:56.402Z,100095.22
2022-10-01T05:29:59.372Z,100100.38
2022-10-01T05:33:03.706Z,100102.34
2022-10-01T05:36:07.121Z,100111.16
2022-10-01T05:39:09.843Z,100100.78
2022-10-01T05:42:14.161Z,100105.53
2022-10-01T05:45:20.261Z,100112.72
2022-10-01T05:48:23.302Z,100115.09
2022-10-01T05:51:26.266Z,100110.72
2022-10-01T05:54:29.694Z,100100.75
2022-10-01T05:57:32.400Z,100099.56
2022-10-01T06:00:36.066Z,100098.00
2022-10-01T06:03:39.150Z,100094.41
2022-10-01T06:06:42.235Z,100081.25
2022-10-01T06:09:45.455Z,100080.84
2022-10-01T06:12:48.775Z,100071.69
2022-10-01T06:15:53.219Z,100074.09
2022-10-01T06:18:57.802Z,100066.47
2022-10-01T06:22:00.803Z,100063.25
2022-10-01T06:25:03.558Z,100070.41
2022-10-01T06:28:08.800Z,100064.37
2022-10-01T06:31:11.859Z,100074.69
2022-10-01T06:34:14.785Z,100084.25
2022-10-01T06:37:17.780Z,100081.84
2022-10-01T06:40:20.740Z,100096.59
2022-10-01T06:43:25.514Z,100094.22
2022-10-01T06:46:29.112Z,100099.78
2022-10-01T06:49:31.731Z,100096.19
2022-10-01T06:52:55.118Z,100087.00
2022-10-01T06:55:58.099Z,100094.19
2022-10-01T06:59:01.056Z,100094.97
2022-10-01T07:02:05.045Z,100084.22
2022-10-01T07:05:08.803Z,100080.56
2022-10-01T07:08:12.179Z,100066.94
2022-10-01T07:11:16.567Z,100069.25
2022-10-01T07:14:20.669Z,100076.41
2022-10-01T07:17:23.675Z,100073.97
2022-10-01T07:20:26.279Z,100073.94
2022-10-01T07:23:29.291Z,100079.50
2022-10-01T07:26:33.274Z,100072.72
2022-10-01T07:29:36.194Z,100064.28
2022-10-01T07:32:39.799Z,100072.13
2022-10-01T07:35:47.993Z,100076.94
2022-10-01T07:38:51.453Z,100083.69
2022-10-01T07:41:57.231Z,100083.69
2022-10-01T07:44:59.907Z,100079.31
2022-10-01T07:48:05.721Z,100077.03
2022-10-01T07:51:08.418Z,100069.06
2022-10-01T07:54:11.988Z,100077.44
2022-10-01T07:57:15.684Z,100075.88
2022-10-01T08:00:20.546Z,100081.47
2022-10-01T08:03:23.835Z,100077.09
2022-10-01T08:06:26.586Z,100072.66
2022-10-01T08:09:31.863Z,100069.03
2022-10-01T08:12:34.553Z,100066.06
2022-10-01T08:15:37.452Z,100063.13
2022-10-01T08:18:40.915Z,100071.84
2022-10-01T08:21:43.827Z,100069.34
2022-10-01T08:24:46.516Z,100072.47
2022-10-01T08:27:49.419Z,100075.63
2022-10-01T08:30:52.017Z,100074.41
2022-10-01T08:33:55.922Z,100061.34
2022-10-01T08:36:58.474Z,100055.25
2022-10-01T08:40:01.586Z,100066.41
2022-10-01T08:43:07.668Z,100063.78
2022-10-01T08:46:15.120Z,100068.22
2022-10-01T08:49:23.964Z,100065.94
2022-10-01T08:52:32.422Z,100066.66
2022-10-01T08:55:37.585Z,100065.03
2022-10-01T08:58:45.505Z,100066.84
2022-10-01T09:01:49.357Z,100071.56
2022-10-01T09:05:01.773Z,100061.72
2022-10-01T09:08:23.721Z,100062.59
2022-10-01T09:11:49.219Z,100065.16
2022-10-01T09:15:20.758Z,100065.41
2022-10-01T09:18:29.488Z,100068.22
2022-10-01T09:22:03.748Z,100067.84
2022-10-01T09:25:09.863Z,100079.12
2022-10-01T09:28:23.893Z,100064.91
2022-10-01T09:31:48.792Z,100065.78
2022-10-01T09:34:53.666Z,100055.03
2022-10-01T09:37:57.735Z,100058.78
2022-10-01T09:41:00.922Z,100051.50
2022-10-01T09:44:04.584Z,100051.47
2022-10-01T09:47:20.808Z,100055.84
2022-10-01T09:50:40.198Z,100039.34
2022-10-01T09:54:05.183Z,100038.13
2022-10-01T09:57:13.689Z,100028.16
2022-10-01T10:00:19.686Z,100029.72
2022-10-01T10:03:30.575Z,100022.09
2022-10-01T10:06:33.821Z,100018.12
2022-10-01T10:09:37.764Z,100015.00
2022-10-01T10:12:43.519Z,100025.03
2022-10-01T10:16:00.388Z,100033.81
2022-10-01T10:19:22.596Z,100021.91
2022-10-01T10:22:27.570Z,100013.44
2022-10-01T10:25:30.157Z,100014.97
2022-10-01T10:28:44.319Z,100016.91
2022-10-01T10:31:48.266Z,100015.97
2022-10-01T10:34:53.546Z,100017.97
2022-10-01T10:37:59.990Z,100019.28
2022-10-01T10:41:04.077Z,100010.53
2022-10-01T10:44:08.583Z,100005.94
2022-10-01T10:47:15.031Z,99997.97
2022-10-01T10:50:38.402Z,100002.91
2022-10-01T10:53:46.185Z,100000.75
2022-10-01T10:57:15.936Z,99991.69
2022-10-01T11:00:24.616Z,99993.28
2022-10-01T11:03:31.584Z,99973.72
2022-10-01T11:06:34.717Z,99974.19
2022-10-01T11:09:53.245Z,99968.22
2022-10-01T11:13:34.580Z,99963.72
2022-10-01T11:17:05.992Z,99963.84
2022-10-01T11:20:20.872Z,99961.41
2022-10-01T11:24:14.891Z,99966.69
2022-10-01T11:27:43.297Z,99964.25
2022-10-01T11:31:26.408Z,99957.53
2022-10-01T11:34:55.783Z,99962.91
2022-10-01T11:38:32.869Z,99955.94
2022-10-01T11:41:35.835Z,99952.72
2022-10-01T11:45:01.673Z,99950.38
2022-10-01T11:48:15.617Z,99947.91
2022-10-01T11:51:29.960Z,99938.88
2022-10-01T11:54:36.341Z,99936.22
2022-10-01T11:57:58.770Z,99943.56
2022-10-01T12:01:23.955Z,99949.91
2022-10-01T12:04:42.150Z,99947.87
2022-10-01T12:07:50.584Z,99941.59
2022-10-01T12:11:09.243Z,99937.03
2022-10-01T12:14:19.111Z,99941.59
2022-10-01T12:17:37.554Z,99938.72
2022-10-01T12:20:44.836Z,99931.22
2022-10-01T12:24:02.928Z,99919.06
2022-10-01T12:27:37.208Z,99931.22
2022-10-01T12:30:50.181Z,99925.44
2022-10-01T12:34:24.499Z,99917.84
2022-10-01T12:37:39.669Z,99918.94
2022-10-01T12:41:10.539Z,99915.41
2022-10-01T12:44:28.002Z,99909.94
2022-10-01T12:47:53.151Z,99911.97
2022-10-01T12:51:26.680Z,99913.12
2022-10-01T12:54:36.389Z,99919.19
2022-10-01T12:57:55.687Z,99907.50
2022-10-01T13:01:20.607Z,99908.34
2022-10-01T13:04:51.183Z,99916.38
2022-10-01T13:08:09.421Z,99921.16
2022-10-01T13:11:38.066Z,99914.03
2022-10-01T13:14:44.611Z,99912.53
2022-10-01T13:17:55.821Z,99905.69
2022-10-01T13:21:17.079Z,99896.84
2022-10-01T13:24:29.503Z,99895.47
2022-10-01T13:27:47.546Z,99887.19
2022-10-01T13:30:53.341Z,99888.81
2022-10-01T13:33:57.847Z,99886.06
2022-10-01T13:37:29.904Z,99887.59
2022-10-01T13:40:35.647Z,99891.50
2022-10-01T13:43:38.507Z,99882.88
2022-10-01T13:47:13.459Z,99877.28
2022-10-01T13:50:24.481Z,99867.03
2022-10-01T13:53:28.441Z,99867.28
2022-10-01T13:56:36.252Z,99868.06
2022-10-01T13:59:39.187Z,99864.31
2022-10-01T14:02:45.598Z,99873.78
2022-10-01T14:05:54.995Z,99871.87
2022-10-01T14:09:05.811Z,99873.66
2022-10-01T14:12:31.877Z,99872.53
2022-10-01T14:16:00.099Z,99873.72
2022-10-01T14:19:04.646Z,99859.41
2022-10-01T14:22:29.201Z,99865.03
2022-10-01T14:26:01.616Z,99855.03
2022-10-01T14:29:17.075Z,99859.44
2022-10-01T14:32:44.373Z,99855.94
2022-10-01T14:35:55.754Z,99840.69
2022-10-01T14:39:26.335Z,99842.94
2022-10-01T14:42:29.791Z,99842.16
2022-10-01T14:45:32.683Z,99838.91
2022-10-01T14:48:38.051Z,99836.16
2022-10-01T14:51:53.665Z,99832.91
2022-10-01T14:55:01.592Z,99832.03
2022-10-01T14:58:05.852Z,99837.59
2022-10-01T15:01:21.781Z,99835.06
2022-10-01T15:04:26.426Z,99828.41
2022-10-01T15:07:35.230Z,99832.03
2022-10-01T15:10:41.832Z,99832.84
2022-10-01T15:13:46.572Z,99834.94
2022-10-01T15:16:50.285Z,99840.63
2022-10-01T15:19:57.948Z,99844.59
2022-10-01T15:23:01.853Z,99839.81
2022-10-01T15:26:11.542Z,99850.38
2022-10-01T15:29:16.769Z,99850.72
2022-10-01T15:32:23.335Z,99840.31
2022-10-01T15:35:26.594Z,99850.75
2022-10-01T15:38:31.994Z,99847.69
2022-10-01T15:41:35.051Z,99860.16
2022-10-01T15:44:42.932Z,99853.84
2022-10-01T15:47:57.067Z,99854.41
2022-10-01T15:51:03.700Z,99849.53
2022-10-01T15:54:09.054Z,99854.41
2022-10-01T15:57:25.932Z,99860.06
2022-10-01T16:00:47.784Z,99857.72
2022-10-01T16:03:56.360Z,99846.97
2022-10-01T16:06:59.014Z,99854.56
2022-10-01T16:10:16.836Z,99855.41
2022-10-01T16:13:43.124Z,99860.31
2022-10-01T16:16:46.205Z,99862.72
2022-10-01T16:19:50.092Z,99855.69
2022-10-01T16:23:31.416Z,99863.72
2022-10-01T16:26:37.291Z,99864.16
2022-10-01T16:29:40.792Z,99862.16
2022-10-01T16:32:43.346Z,99866.97
2022-10-01T16:35:48.537Z,99864.59
2022-10-01T16:38:51.786Z,99870.19
2022-10-01T16:42:19.205Z,99861.44
2022-10-01T16:45:25.301Z,99860.91
2022-10-01T16:48:28.472Z,99869.28
2022-10-01T16:51:32.645Z,99864.47
2022-10-01T16:54:36.272Z,99860.84
2022-10-01T16:57:39.162Z,99877.25
2022-10-01T17:00:42.114Z,99875.56
2022-10-01T17:03:44.684Z,99883.41
2022-10-01T17:06:48.400Z,99883.47
2022-10-01T17:09:51.006Z,99872.97
2022-10-01T17:12:54.954Z,99866.22
2022-10-01T17:15:57.632Z,99885.66
2022-10-01T17:19:01.773Z,99886.91
2022-10-01T17:22:04.351Z,99886.63
2022-10-01T17:25:07.878Z,99884.91
2022-10-01T17:28:21.374Z,99896.84
2022-10-01T17:31:24.289Z,99903.97
2022-10-01T17:34:26.911Z,99901.53
2022-10-01T17:37:29.819Z,99904.66
2022-10-01T17:40:32.741Z,99893.44
2022-10-01T17:43:39.169Z,99898.59
2022-10-01T17:46:41.870Z,99915.72
2022-10-01T17:49:44.795Z,99918.16
2022-10-01T17:52:48.082Z,99920.97
2022-10-01T17:55:51.061Z,99920.50
2022-10-01T17:58:54.715Z,99928.53
2022-10-01T18:01:58.066Z,99922.94
2022-10-01T18:05:04.184Z,99921.12
2022-10-01T18:08:06.965Z,99912.41
2022-10-01T18:11:12.103Z,99913.62
2022-10-01T18:14:15.315Z,99921.56
2022-10-01T18:17:18.370Z,99917.50
2022-10-01T18:20:21.997Z,99935.13
2022-10-01T18:23:24.923Z,99940.91
2022-10-01T18:26:27.630Z,99955.69
2022-10-01T18:29:30.537Z,99951.69
2022-10-01T18:32:40.438Z,99953.69
2022-10-01T18:35:44.501Z,99945.00
2022-10-01T18:38:50.407Z,99940.63
2022-10-01T18:41:54.819Z,99944.19
2022-10-01T18:44:59.871Z,99951.28
2022-10-01T18:48:18.054Z,99949.00
2022-10-01T18:51:38.043Z,99959.00
2022-10-01T18:54:50.156Z,99962.53
2022-10-01T18:57:55.743Z,99951.28
2022-10-01T19:01:32.021Z,99956.44
2022-10-01T19:05:01.713Z,99968.06
2022-10-01T19:08:53.806Z,99974.47
2022-10-01T19:12:35.657Z,99974.41
2022-10-01T19:16:16.148Z,99973.56
2022-10-01T19:19:48.719Z,99972.03
2022-10-01T19:23:23.620Z,99975.38
2022-10-01T19:26:36.360Z,99973.78
2022-10-01T19:30:07.091Z,99980.53
2022-10-01T19:33:11.976Z,99990.09
2022-10-01T19:36:34.556Z,99992.94
2022-10-01T19:39:39.503Z,99990.94
2022-10-01T19:42:49.754Z,99994.13
2022-10-01T19:45:59.451Z,99998.59
2022-10-01T19:49:02.608Z,99991.53
2022-10-01T19:52:18.455Z,99986.78
2022-10-01T19:55:25.076Z,99985.63
2022-10-01T19:58:30.733Z,99982.47
2022-10-01T20:01:51.779Z,99986.84
2022-10-01T20:05:05.472Z,99998.81
2022-10-01T20:08:29.069Z,100002.00
2022-10-01T20:11:50.272Z,100001.22
2022-10-01T20:15:34.643Z,100000.44
2022-10-01T20:18:40.139Z,100007.59
2022-10-01T20:22:14.354Z,100000.03
2022-10-01T20:25:25.973Z,100009.97
2022-10-01T20:28:41.333Z,100014.72
2022-10-01T20:31:52.842Z,100013.13
2022-10-01T20:35:24.758Z,100021.88
2022-10-01T20:38:39.750Z,100024.63
2022-10-01T20:41:50.882Z,100025.81
2022-10-01T20:44:54.423Z,100040.50
2022-10-01T20:48:02.942Z,100050.00
2022-10-01T20:51:12.810Z,100042.47
2022-10-01T20:54:23.218Z,100043.66
2022-10-01T20:57:39.810Z,100053.97
2022-10-01T21:00:45.944Z,100043.28
2022-10-01T21:03:57.364Z,100043.66
2022-10-01T21:07:27.965Z,100039.38
2022-10-01T21:10:40.069Z,100050.13
2022-10-01T21:13:56.810Z,100062.88
2022-10-01T21:17:11.516Z,100059.69
2022-10-01T21:20:17.098Z,100059.69
2022-10-01T21:23:43.292Z,100063.25
2022-10-01T21:27:22.977Z,100062.06
2022-10-01T21:30:35.889Z,100064.06
2022-10-01T21:33:54.094Z,100056.53
2022-10-01T21:37:21.873Z,100068.00
2022-10-01T21:40:52.022Z,100070.41
2022-10-01T21:44:08.863Z,100072.84
2022-10-01T21:47:42.759Z,100084.00
2022-10-01T21:51:00.282Z,100083.56
2022-10-01T21:54:18.281Z,100075.16
2022-10-01T21:57:41.083Z,100084.31
2022-10-01T22:00:53.270Z,100093.44
2022-10-01T22:04:21.153Z,100088.28
2022-10-01T22:07:37.164Z,100081.44
2022-10-01T22:10:47.275Z,100086.97
2022-10-01T22:13:54.054Z,100086.94
2022-10-01T22:17:03.592Z,100092.88
2022-10-01T22:20:08.134Z,100102.81
2022-10-01T22:23:14.926Z,100098.72
2022-10-01T22:26:21.769Z,100099.16
2022-10-01T22:29:29.562Z,100111.50
2022-10-01T22:32:40.425Z,100107.50
2022-10-01T22:35:54.244Z,100120.56
2022-10-01T22:39:04.915Z,100122.19
2022-10-01T22:42:15.455Z,100113.41
2022-10-01T22:45:18.454Z,100117.84
2022-10-01T22:48:30.431Z,100125.00
2022-10-01T22:51:38.719Z,100119.88
2022-10-01T22:55:04.488Z,100127.31
2022-10-01T22:58:24.874Z,100133.69
2022-10-01T23:01:46.615Z,100135.31
2022-10-01T23:05:06.542Z,100145.66
2022-10-01T23:08:37.119Z,100143.22
2022-10-01T23:11:55.205Z,100129.41
2022-10-01T23:15:07.808Z,100138.53
2022-10-01T23:18:40.520Z,100135.72
2022-10-01T23:21:59.992Z,100130.88
2022-10-01T23:25:35.541Z,100145.16
2022-10-01T23:28:50.612Z,100145.19
2022-10-01T23:32:22.875Z,100145.63
2022-10-01T23:35:39.111Z,100150.78
2022-10-01T23:39:03.172Z,100145.19
2022-10-01T23:42:17.322Z,100148.38
2022-10-01T23:45:36.253Z,100152.37
2022-10-01T23:48:48.491Z,100148.28
2022-10-01T23:52:29.323Z,100156.94
2022-10-01T23:56:14.253Z,100172.41
2022-10-01T23:59:37.622Z,100170.84
